sensor_id;sensor_type;location;lat;lon;timestamp;pressure;altitude;pressure_sealevel;temperature;humidity
73501;BME280;61721;42.206;25.320;2023-04-08T00:01:26;99923.97;;;8.88;67.99
73501;BME280;61721;42.206;25.320;2023-04-08T00:03:54;99924.84;;;8.77;68.62
73501;BME280;61721;42.206;25.320;2023-04-08T00:06:21;99930.88;;;9.22;66.69
73501;BME280;61721;42.206;25.320;2023-04-08T00:08:49;99931.25;;;8.75;68.65
73501;BME280;61721;42.206;25.320;2023-04-08T00:11:16;99924.69;;;8.79;68.62
73501;BME280;61721;42.206;25.320;2023-04-08T00:13:43;99918.41;;;8.69;69.39
73501;BME280;61721;42.206;25.320;2023-04-08T00:16:10;99927.22;;;8.91;68.14
73501;BME280;61721;42.206;25.320;2023-04-08T00:18:37;99928.97;;;8.59;69.14
73501;BME280;61721;42.206;25.320;2023-04-08T00:21:06;99928.66;;;8.41;69.83
73501;BME280;61721;42.206;25.320;2023-04-08T00:23:33;99927.03;;;8.72;69.10
73501;BME280;61721;42.206;25.320;2023-04-08T00:26:00;99936.78;;;9.26;67.48
73501;BME280;61721;42.206;25.320;2023-04-08T00:28:27;99934.94;;;8.94;68.30
73501;BME280;61721;42.206;25.320;2023-04-08T00:30:55;99934.09;;;8.94;68.26
73501;BME280;61721;42.206;25.320;2023-04-08T00:33:22;99940.66;;;9.01;68.06
73501;BME280;61721;42.206;25.320;2023-04-08T00:35:50;99946.47;;;8.95;68.48
73501;BME280;61721;42.206;25.320;2023-04-08T00:38:19;99938.06;;;8.68;69.15
73501;BME280;61721;42.206;25.320;2023-04-08T00:40:46;99938.03;;;8.79;68.86
73501;BME280;61721;42.206;25.320;2023-04-08T00:43:13;99947.50;;;8.83;68.86
73501;BME280;61721;42.206;25.320;2023-04-08T00:45:41;99954.50;;;8.84;68.68
73501;BME280;61721;42.206;25.320;2023-04-08T00:48:08;99952.47;;;8.76;68.57
73501;BME280;61721;42.206;25.320;2023-04-08T00:50:35;99943.91;;;8.39;69.89
73501;BME280;61721;42.206;25.320;2023-04-08T00:53:02;99944.00;;;8.60;69.24
73501;BME280;61721;42.206;25.320;2023-04-08T00:55:31;99953.06;;;8.80;69.53
73501;BME280;61721;42.206;25.320;2023-04-08T00:57:59;99948.69;;;8.90;68.90
73501;BME280;61721;42.206;25.320;2023-04-08T01:00:27;99955.53;;;8.72;69.53
73501;BME280;61721;42.206;25.320;2023-04-08T01:03:04;99950.47;;;8.57;69.94
73501;BME280;61721;42.206;25.320;2023-04-08T01:05:38;99949.22;;;8.73;69.15
73501;BME280;61721;42.206;25.320;2023-04-08T01:08:10;99946.56;;;8.73;69.38
73501;BME280;61721;42.206;25.320;2023-04-08T01:10:41;99950.19;;;8.61;69.66
73501;BME280;61721;42.206;25.320;2023-04-08T01:13:12;99950.78;;;8.75;69.13
73501;BME280;61721;42.206;25.320;2023-04-08T01:15:41;99959.28;;;8.69;69.34
73501;BME280;61721;42.206;25.320;2023-04-08T01:18:11;99963.16;;;8.65;70.13
73501;BME280;61721;42.206;25.320;2023-04-08T01:20:40;99967.91;;;8.73;69.40
73501;BME280;61721;42.206;25.320;2023-04-08T01:23:14;99960.75;;;8.62;69.39
73501;BME280;61721;42.206;25.320;2023-04-08T01:25:47;99967.34;;;9.01;68.11
73501;BME280;61721;42.206;25.320;2023-04-08T01:28:16;99969.19;;;8.89;68.21
73501;BME280;61721;42.206;25.320;2023-04-08T01:30:45;99967.25;;;8.80;68.92
73501;BME280;61721;42.206;25.320;2023-04-08T01:33:16;99973.44;;;8.81;68.82
73501;BME280;61721;42.206;25.320;2023-04-08T01:35:44;99973.94;;;8.64;69.25
73501;BME280;61721;42.206;25.320;2023-04-08T01:38:15;99964.25;;;8.29;70.58
73501;BME280;61721;42.206;25.320;2023-04-08T01:40:46;99959.34;;;8.90;69.38
73501;BME280;61721;42.206;25.320;2023-04-08T01:43:16;99949.97;;;8.52;69.77
73501;BME280;61721;42.206;25.320;2023-04-08T01:45:45;99961.13;;;8.46;69.54
73501;BME280;61721;42.206;25.320;2023-04-08T01:48:13;99952.13;;;8.25;70.23
73501;BME280;61721;42.206;25.320;2023-04-08T01:50:42;99953.06;;;8.80;69.26
73501;BME280;61721;42.206;25.320;2023-04-08T01:53:10;99952.66;;;8.52;69.06
73501;BME280;61721;42.206;25.320;2023-04-08T01:55:39;99943.91;;;8.39;69.91
73501;BME280;61721;42.206;25.320;2023-04-08T01:58:11;99955.91;;;8.34;70.05
73501;BME280;61721;42.206;25.320;2023-04-08T02:00:43;99949.13;;;8.30;69.78
73501;BME280;61721;42.206;25.320;2023-04-08T02:03:11;99956.97;;;8.09;70.74
73501;BME280;61721;42.206;25.320;2023-04-08T02:05:39;99956.41;;;8.39;70.27
73501;BME280;61721;42.206;25.320;2023-04-08T02:08:07;99969.63;;;8.51;69.76
73501;BME280;61721;42.206;25.320;2023-04-08T02:10:34;99966.22;;;8.49;69.52
73501;BME280;61721;42.206;25.320;2023-04-08T02:13:02;99976.88;;;8.27;70.25
73501;BME280;61721;42.206;25.320;2023-04-08T02:15:33;99967.44;;;8.45;69.55
73501;BME280;61721;42.206;25.320;2023-04-08T02:18:08;99969.13;;;8.35;69.58
73501;BME280;61721;42.206;25.320;2023-04-08T02:20:38;99979.69;;;8.48;69.49
73501;BME280;61721;42.206;25.320;2023-04-08T02:23:13;99981.88;;;8.43;69.99
73501;BME280;61721;42.206;25.320;2023-04-08T02:25:43;99980.97;;;8.20;69.76
73501;BME280;61721;42.206;25.320;2023-04-08T02:28:11;99971.81;;;8.46;69.67
73501;BME280;61721;42.206;25.320;2023-04-08T02:30:44;99968.66;;;8.30;70.02
73501;BME280;61721;42.206;25.320;2023-04-08T02:33:14;99976.41;;;8.33;69.53
73501;BME280;61721;42.206;25.320;2023-04-08T02:35:44;99968.66;;;8.52;69.04
73501;BME280;61721;42.206;25.320;2023-04-08T02:38:11;99980.78;;;8.45;69.21
73501;BME280;61721;42.206;25.320;2023-04-08T02:40:38;99978.69;;;8.60;68.82
73501;BME280;61721;42.206;25.320;2023-04-08T02:43:05;99984.28;;;8.57;68.61
73501;BME280;61721;42.206;25.320;2023-04-08T02:45:38;99989.72;;;8.44;68.91
73501;BME280;61721;42.206;25.320;2023-04-08T02:48:08;99985.63;;;8.51;68.85
73501;BME280;61721;42.206;25.320;2023-04-08T02:50:36;99987.81;;;8.46;68.75
73501;BME280;61721;42.206;25.320;2023-04-08T02:53:04;99986.97;;;8.57;69.05
73501;BME280;61721;42.206;25.320;2023-04-08T02:55:31;99992.19;;;8.47;68.64
73501;BME280;61721;42.206;25.320;2023-04-08T02:57:58;99996.16;;;8.64;68.59
73501;BME280;61721;42.206;25.320;2023-04-08T03:00:26;99997.91;;;9.08;66.75
73501;BME280;61721;42.206;25.320;2023-04-08T03:02:54;100000.03;;;8.82;67.05
73501;BME280;61721;42.206;25.320;2023-04-08T03:05:22;100003.75;;;8.91;66.63
73501;BME280;61721;42.206;25.320;2023-04-08T03:07:49;99997.25;;;8.50;68.57
73501;BME280;61721;42.206;25.320;2023-04-08T03:10:16;99993.63;;;8.63;68.53
73501;BME280;61721;42.206;25.320;2023-04-08T03:12:44;99993.47;;;8.75;67.53
73501;BME280;61721;42.206;25.320;2023-04-08T03:15:11;99990.81;;;8.64;67.19
73501;BME280;61721;42.206;25.320;2023-04-08T03:17:38;100000.25;;;8.79;67.46
73501;BME280;61721;42.206;25.320;2023-04-08T03:20:06;100001.16;;;8.57;67.63
73501;BME280;61721;42.206;25.320;2023-04-08T03:22:35;99993.09;;;8.69;67.62
73501;BME280;61721;42.206;25.320;2023-04-08T03:25:03;99999.38;;;9.01;66.61
73501;BME280;61721;42.206;25.320;2023-04-08T03:27:30;100003.53;;;8.16;68.45
73501;BME280;61721;42.206;25.320;2023-04-08T03:29:57;99999.56;;;8.44;68.21
73501;BME280;61721;42.206;25.320;2023-04-08T03:32:24;99997.00;;;8.65;67.51
73501;BME280;61721;42.206;25.320;2023-04-08T03:34:52;100006.69;;;8.21;68.58
73501;BME280;61721;42.206;25.320;2023-04-08T03:37:19;100014.00;;;7.84;69.98
73501;BME280;61721;42.206;25.320;2023-04-08T03:39:47;100013.88;;;7.86;70.25
73501;BME280;61721;42.206;25.320;2023-04-08T03:42:14;100020.56;;;7.91;70.22
73501;BME280;61721;42.206;25.320;2023-04-08T03:44:42;100012.72;;;8.01;69.65
73501;BME280;61721;42.206;25.320;2023-04-08T03:47:09;100015.88;;;8.17;68.70
73501;BME280;61721;42.206;25.320;2023-04-08T03:49:37;100027.41;;;7.71;70.29
73501;BME280;61721;42.206;25.320;2023-04-08T03:52:04;100026.09;;;7.77;69.85
73501;BME280;61721;42.206;25.320;2023-04-08T03:54:31;100024.38;;;8.22;69.12
73501;BME280;61721;42.206;25.320;2023-04-08T03:57:00;100016.66;;;8.30;68.83
73501;BME280;61721;42.206;25.320;2023-04-08T03:59:27;100019.53;;;8.38;68.49
73501;BME280;61721;42.206;25.320;2023-04-08T04:01:54;100022.78;;;8.20;69.07
73501;BME280;61721;42.206;25.320;2023-04-08T04:04:22;100019.22;;;7.86;70.11
73501;BME280;61721;42.206;25.320;2023-04-08T04:06:49;100020.72;;;8.12;68.35
73501;BME280;61721;42.206;25.320;2023-04-08T04:09:17;100003.03;;;8.11;68.71
73501;BME280;61721;42.206;25.320;2023-04-08T04:11:44;100002.50;;;7.95;69.31
73501;BME280;61721;42.206;25.320;2023-04-08T04:14:12;100011.25;;;7.97;69.11
73501;BME280;61721;42.206;25.320;2023-04-08T04:16:39;100011.25;;;7.62;69.94
73501;BME280;61721;42.206;25.320;2023-04-08T04:19:07;100011.59;;;8.03;69.35
73501;BME280;61721;42.206;25.320;2023-04-08T04:21:36;100009.19;;;8.00;68.99
73501;BME280;61721;42.206;25.320;2023-04-08T04:24:06;100014.75;;;8.08;69.16
73501;BME280;61721;42.206;25.320;2023-04-08T04:26:34;100021.09;;;8.07;69.11
73501;BME280;61721;42.206;25.320;2023-04-08T04:29:01;100018.81;;;7.79;69.59
73501;BME280;61721;42.206;25.320;2023-04-08T04:31:30;100022.66;;;8.10;69.24
73501;BME280;61721;42.206;25.320;2023-04-08T04:33:57;100022.25;;;7.92;69.69
73501;BME280;61721;42.206;25.320;2023-04-08T04:36:24;100017.63;;;8.40;67.76
73501;BME280;61721;42.206;25.320;2023-04-08T04:38:52;100024.00;;;8.27;68.04
73501;BME280;61721;42.206;25.320;2023-04-08T04:41:19;100031.56;;;7.98;69.73
73501;BME280;61721;42.206;25.320;2023-04-08T04:43:46;100033.03;;;7.91;70.39
73501;BME280;61721;42.206;25.320;2023-04-08T04:46:14;100030.50;;;8.57;67.52
73501;BME280;61721;42.206;25.320;2023-04-08T04:48:44;100051.53;;;7.81;70.01
73501;BME280;61721;42.206;25.320;2023-04-08T04:51:11;100047.06;;;7.82;70.30
73501;BME280;61721;42.206;25.320;2023-04-08T04:53:38;100045.41;;;8.03;69.87
73501;BME280;61721;42.206;25.320;2023-04-08T04:56:06;100045.97;;;8.30;68.35
73501;BME280;61721;42.206;25.320;2023-04-08T04:58:33;100046.78;;;7.73;70.90
73501;BME280;61721;42.206;25.320;2023-04-08T05:01:00;100042.00;;;7.90;70.03
73501;BME280;61721;42.206;25.320;2023-04-08T05:03:28;100050.03;;;8.23;68.56
73501;BME280;61721;42.206;25.320;2023-04-08T05:05:56;100049.56;;;8.29;68.63
73501;BME280;61721;42.206;25.320;2023-04-08T05:08:26;100054.97;;;8.51;68.01
73501;BME280;61721;42.206;25.320;2023-04-08T05:10:53;100049.38;;;8.32;68.22
73501;BME280;61721;42.206;25.320;2023-04-08T05:13:22;100045.00;;;8.53;67.04
73501;BME280;61721;42.206;25.320;2023-04-08T05:15:49;100043.44;;;8.51;67.17
73501;BME280;61721;42.206;25.320;2023-04-08T05:18:16;100042.47;;;8.41;68.03
73501;BME280;61721;42.206;25.320;2023-04-08T05:20:43;100050.84;;;8.36;67.89
73501;BME280;61721;42.206;25.320;2023-04-08T05:23:12;100040.34;;;8.11;67.93
73501;BME280;61721;42.206;25.320;2023-04-08T05:25:39;100047.69;;;8.42;67.31
73501;BME280;61721;42.206;25.320;2023-04-08T05:28:08;100045.28;;;8.62;67.54
73501;BME280;61721;42.206;25.320;2023-04-08T05:30:37;100046.97;;;8.63;67.40
73501;BME280;61721;42.206;25.320;2023-04-08T05:33:05;100049.41;;;8.77;67.08
73501;BME280;61721;42.206;25.320;2023-04-08T05:35:32;100049.16;;;8.57;66.92
73501;BME280;61721;42.206;25.320;2023-04-08T05:37:59;100046.97;;;8.51;67.33
73501;BME280;61721;42.206;25.320;2023-04-08T05:40:28;100054.97;;;8.85;66.72
73501;BME280;61721;42.206;25.320;2023-04-08T05:42:57;100054.94;;;9.07;65.65
73501;BME280;61721;42.206;25.320;2023-04-08T05:45:26;100047.66;;;9.09;65.72
73501;BME280;61721;42.206;25.320;2023-04-08T05:47:54;100041.88;;;9.36;65.36
73501;BME280;61721;42.206;25.320;2023-04-08T05:50:21;100046.25;;;9.69;64.83
73501;BME280;61721;42.206;25.320;2023-04-08T05:52:49;100049.25;;;10.28;63.80
73501;BME280;61721;42.206;25.320;2023-04-08T05:55:17;100057.84;;;9.58;64.31
73501;BME280;61721;42.206;25.320;2023-04-08T05:57:46;100066.25;;;10.27;62.79
73501;BME280;61721;42.206;25.320;2023-04-08T06:00:13;100068.91;;;10.06;63.44
73501;BME280;61721;42.206;25.320;2023-04-08T06:02:41;100071.09;;;10.33;63.00
73501;BME280;61721;42.206;25.320;2023-04-08T06:05:08;100076.28;;;9.93;64.13
73501;BME280;61721;42.206;25.320;2023-04-08T06:07:36;100068.69;;;9.77;63.79
73501;BME280;61721;42.206;25.320;2023-04-08T06:10:03;100067.41;;;10.13;62.28
73501;BME280;61721;42.206;25.320;2023-04-08T06:12:34;100061.75;;;9.54;64.21
73501;BME280;61721;42.206;25.320;2023-04-08T06:15:03;100063.94;;;9.49;64.84
73501;BME280;61721;42.206;25.320;2023-04-08T06:17:30;100070.56;;;9.66;65.38
73501;BME280;61721;42.206;25.320;2023-04-08T06:20:00;100062.97;;;9.82;64.45
73501;BME280;61721;42.206;25.320;2023-04-08T06:22:28;100062.59;;;10.79;61.89
73501;BME280;61721;42.206;25.320;2023-04-08T06:24:55;100072.13;;;10.72;62.80
73501;BME280;61721;42.206;25.320;2023-04-08T06:27:22;100065.31;;;10.58;63.05
73501;BME280;61721;42.206;25.320;2023-04-08T06:29:49;100068.84;;;10.89;62.09
73501;BME280;61721;42.206;25.320;2023-04-08T06:32:19;100068.41;;;10.54;63.54
73501;BME280;61721;42.206;25.320;2023-04-08T06:34:46;100070.56;;;9.66;65.93
73501;BME280;61721;42.206;25.320;2023-04-08T06:37:14;100078.72;;;10.38;63.55
73501;BME280;61721;42.206;25.320;2023-04-08T06:39:41;100082.81;;;10.21;64.01
73501;BME280;61721;42.206;25.320;2023-04-08T06:42:08;100081.25;;;10.90;62.89
73501;BME280;61721;42.206;25.320;2023-04-08T06:44:36;100080.97;;;10.93;62.50
73501;BME280;61721;42.206;25.320;2023-04-08T06:47:03;100090.28;;;10.17;64.37
73501;BME280;61721;42.206;25.320;2023-04-08T06:49:32;100079.03;;;11.05;62.07
73501;BME280;61721;42.206;25.320;2023-04-08T06:52:00;100084.31;;;10.76;61.85
73501;BME280;61721;42.206;25.320;2023-04-08T06:54:28;100085.19;;;10.56;62.52
73501;BME280;61721;42.206;25.320;2023-04-08T06:56:55;100073.59;;;10.25;64.91
73501;BME280;61721;42.206;25.320;2023-04-08T06:59:22;100085.47;;;10.93;62.57
73501;BME280;61721;42.206;25.320;2023-04-08T07:01:51;100078.56;;;10.60;63.44
73501;BME280;61721;42.206;25.320;2023-04-08T07:04:22;100078.84;;;11.37;59.89
73501;BME280;61721;42.206;25.320;2023-04-08T07:06:50;100076.63;;;11.61;60.47
73501;BME280;61721;42.206;25.320;2023-04-08T07:09:20;100084.56;;;12.11;58.85
73501;BME280;61721;42.206;25.320;2023-04-08T07:11:47;100094.56;;;11.01;61.92
73501;BME280;61721;42.206;25.320;2023-04-08T07:14:14;100094.44;;;10.82;62.17
73501;BME280;61721;42.206;25.320;2023-04-08T07:16:41;100094.66;;;11.40;61.27
73501;BME280;61721;42.206;25.320;2023-04-08T07:19:08;100093.88;;;11.68;59.55
73501;BME280;61721;42.206;25.320;2023-04-08T07:21:36;100096.94;;;11.54;61.52
73501;BME280;61721;42.206;25.320;2023-04-08T07:24:06;100086.97;;;11.75;60.67
73501;BME280;61721;42.206;25.320;2023-04-08T07:26:33;100086.78;;;12.34;58.90
73501;BME280;61721;42.206;25.320;2023-04-08T07:29:00;100087.50;;;11.69;60.04
73501;BME280;61721;42.206;25.320;2023-04-08T07:31:27;100091.16;;;10.99;62.41
73501;BME280;61721;42.206;25.320;2023-04-08T07:33:55;100085.91;;;13.00;57.59
73501;BME280;61721;42.206;25.320;2023-04-08T07:36:23;100083.22;;;13.27;56.09
73501;BME280;61721;42.206;25.320;2023-04-08T07:38:51;100095.47;;;12.65;58.18
73501;BME280;61721;42.206;25.320;2023-04-08T07:41:20;100082.53;;;11.55;60.65
73501;BME280;61721;42.206;25.320;2023-04-08T07:43:48;100087.75;;;13.54;56.53
73501;BME280;61721;42.206;25.320;2023-04-08T07:46:15;100082.78;;;13.04;58.74
73501;BME280;61721;42.206;25.320;2023-04-08T07:48:42;100088.06;;;13.68;55.47
73501;BME280;61721;42.206;25.320;2023-04-08T07:51:09;100082.03;;;13.39;57.23
73501;BME280;61721;42.206;25.320;2023-04-08T07:53:37;100082.38;;;14.07;54.42
73501;BME280;61721;42.206;25.320;2023-04-08T07:56:10;100092.59;;;12.86;58.25
73501;BME280;61721;42.206;25.320;2023-04-08T07:58:39;100084.84;;;12.17;59.92
73501;BME280;61721;42.206;25.320;2023-04-08T08:01:14;100090.41;;;13.36;59.38
73501;BME280;61721;42.206;25.320;2023-04-08T08:03:45;100092.44;;;12.41;59.87
73501;BME280;61721;42.206;25.320;2023-04-08T08:06:13;100090.84;;;13.04;57.62
73501;BME280;61721;42.206;25.320;2023-04-08T08:08:40;100085.66;;;12.37;59.14
73501;BME280;61721;42.206;25.320;2023-04-08T08:11:07;100084.69;;;12.84;58.54
73501;BME280;61721;42.206;25.320;2023-04-08T08:13:34;100082.47;;;12.70;58.99
73501;BME280;61721;42.206;25.320;2023-04-08T08:16:03;100084.72;;;13.39;56.92
73501;BME280;61721;42.206;25.320;2023-04-08T08:18:33;100084.06;;;14.26;56.37
73501;BME280;61721;42.206;25.320;2023-04-08T08:21:01;100091.09;;;13.01;57.86
73501;BME280;61721;42.206;25.320;2023-04-08T08:23:29;100082.97;;;14.19;55.10
73501;BME280;61721;42.206;25.320;2023-04-08T08:25:59;100082.97;;;13.48;56.73
73501;BME280;61721;42.206;25.320;2023-04-08T08:28:27;100078.56;;;13.74;55.82
73501;BME280;61721;42.206;25.320;2023-04-08T08:30:54;100089.97;;;13.58;56.77
73501;BME280;61721;42.206;25.320;2023-04-08T08:33:23;100080.53;;;13.54;56.44
73501;BME280;61721;42.206;25.320;2023-04-08T08:35:50;100081.63;;;15.76;50.40
73501;BME280;61721;42.206;25.320;2023-04-08T08:38:18;100092.28;;;14.24;52.36
73501;BME280;61721;42.206;25.320;2023-04-08T08:40:45;100088.19;;;15.57;50.34
73501;BME280;61721;42.206;25.320;2023-04-08T08:43:13;100080.63;;;15.85;48.25
73501;BME280;61721;42.206;25.320;2023-04-08T08:45:40;100067.63;;;15.64;48.67
73501;BME280;61721;42.206;25.320;2023-04-08T08:48:08;100071.16;;;15.57;49.49
73501;BME280;61721;42.206;25.320;2023-04-08T08:50:37;100075.03;;;15.20;50.39
73501;BME280;61721;42.206;25.320;2023-04-08T08:53:04;100073.91;;;15.31;50.98
73501;BME280;61721;42.206;25.320;2023-04-08T08:55:32;100066.66;;;15.39;50.32
73501;BME280;61721;42.206;25.320;2023-04-08T08:57:59;100068.47;;;14.81;50.38
73501;BME280;61721;42.206;25.320;2023-04-08T09:00:31;100069.53;;;14.88;48.78
73501;BME280;61721;42.206;25.320;2023-04-08T09:03:14;100066.44;;;15.59;50.05
73501;BME280;61721;42.206;25.320;2023-04-08T09:05:52;100081.47;;;15.27;49.38
73501;BME280;61721;42.206;25.320;2023-04-08T09:08:24;100074.88;;;15.64;48.56
73501;BME280;61721;42.206;25.320;2023-04-08T09:10:52;100070.53;;;16.44;45.28
73501;BME280;61721;42.206;25.320;2023-04-08T09:13:20;100069.19;;;16.32;46.33
73501;BME280;61721;42.206;25.320;2023-04-08T09:16:01;100081.84;;;15.99;48.14
73501;BME280;61721;42.206;25.320;2023-04-08T09:18:30;100077.63;;;16.45;45.00
73501;BME280;61721;42.206;25.320;2023-04-08T09:21:00;100071.19;;;16.46;45.56
73501;BME280;61721;42.206;25.320;2023-04-08T09:23:36;100071.84;;;16.80;43.93
73501;BME280;61721;42.206;25.320;2023-04-08T09:26:07;100070.81;;;14.32;48.49
73501;BME280;61721;42.206;25.320;2023-04-08T09:28:35;100066.44;;;14.31;50.48
73501;BME280;61721;42.206;25.320;2023-04-08T09:31:18;100067.63;;;15.80;47.12
73501;BME280;61721;42.206;25.320;2023-04-08T09:33:46;100080.16;;;15.31;46.98
73501;BME280;61721;42.206;25.320;2023-04-08T09:36:15;100073.41;;;14.93;49.03
73501;BME280;61721;42.206;25.320;2023-04-08T09:38:42;100068.84;;;16.59;46.52
73501;BME280;61721;42.206;25.320;2023-04-08T09:41:12;100072.88;;;16.55;46.04
73501;BME280;61721;42.206;25.320;2023-04-08T09:43:42;100076.19;;;14.76;46.13
73501;BME280;61721;42.206;25.320;2023-04-08T09:46:14;100070.00;;;15.25;45.66
73501;BME280;61721;42.206;25.320;2023-04-08T09:48:48;100066.84;;;14.62;48.43
73501;BME280;61721;42.206;25.320;2023-04-08T09:51:18;100058.63;;;14.97;47.34
73501;BME280;61721;42.206;25.320;2023-04-08T09:53:55;100055.00;;;16.21;46.88
73501;BME280;61721;42.206;25.320;2023-04-08T09:56:26;100061.63;;;15.36;48.84
73501;BME280;61721;42.206;25.320;2023-04-08T09:59:00;100063.66;;;15.43;49.22
73501;BME280;61721;42.206;25.320;2023-04-08T10:01:36;100063.97;;;16.30;47.37
73501;BME280;61721;42.206;25.320;2023-04-08T10:04:06;100070.41;;;15.47;48.56
73501;BME280;61721;42.206;25.320;2023-04-08T10:06:37;100056.53;;;15.25;50.38
73501;BME280;61721;42.206;25.320;2023-04-08T10:09:06;100058.94;;;15.36;50.17
73501;BME280;61721;42.206;25.320;2023-04-08T10:11:35;100045.91;;;14.82;50.49
73501;BME280;61721;42.206;25.320;2023-04-08T10:14:02;100052.50;;;16.04;48.08
73501;BME280;61721;42.206;25.320;2023-04-08T10:16:30;100051.91;;;15.52;49.25
73501;BME280;61721;42.206;25.320;2023-04-08T10:18:57;100040.25;;;16.81;46.36
73501;BME280;61721;42.206;25.320;2023-04-08T10:21:31;100035.50;;;17.52;43.57
73501;BME280;61721;42.206;25.320;2023-04-08T10:24:01;100048.06;;;15.20;48.20
73501;BME280;61721;42.206;25.320;2023-04-08T10:26:39;100036.44;;;16.02;46.95
73501;BME280;61721;42.206;25.320;2023-04-08T10:29:32;100020.53;;;16.64;45.48
73501;BME280;61721;42.206;25.320;2023-04-08T10:32:00;100012.19;;;17.21;42.63
73501;BME280;61721;42.206;25.320;2023-04-08T10:34:27;100010.75;;;17.33;44.40
73501;BME280;61721;42.206;25.320;2023-04-08T10:36:57;100005.91;;;17.59;45.97
73501;BME280;61721;42.206;25.320;2023-04-08T10:39:32;99995.97;;;16.02;47.09
73501;BME280;61721;42.206;25.320;2023-04-08T10:42:00;100007.41;;;17.00;43.67
73501;BME280;61721;42.206;25.320;2023-04-08T10:44:28;100006.53;;;14.55;48.86
73501;BME280;61721;42.206;25.320;2023-04-08T10:46:59;100006.41;;;16.21;47.61
73501;BME280;61721;42.206;25.320;2023-04-08T10:49:32;99999.25;;;15.31;48.67
73501;BME280;61721;42.206;25.320;2023-04-08T10:51:59;100001.50;;;15.52;47.86
73501;BME280;61721;42.206;25.320;2023-04-08T10:54:27;100000.38;;;17.44;43.86
73501;BME280;61721;42.206;25.320;2023-04-08T10:56:55;100014.22;;;17.19;43.93
73501;BME280;61721;42.206;25.320;2023-04-08T10:59:30;100025.97;;;16.32;45.07
73501;BME280;61721;42.206;25.320;2023-04-08T11:01:57;100007.66;;;16.66;45.50
73501;BME280;61721;42.206;25.320;2023-04-08T11:04:26;100019.03;;;16.45;44.96
73501;BME280;61721;42.206;25.320;2023-04-08T11:06:53;100012.44;;;16.48;44.72
73501;BME280;61721;42.206;25.320;2023-04-08T11:09:20;100012.06;;;15.37;47.37
73501;BME280;61721;42.206;25.320;2023-04-08T11:11:47;99993.88;;;16.37;45.84
73501;BME280;61721;42.206;25.320;2023-04-08T11:14:16;99993.22;;;17.82;42.04
73501;BME280;61721;42.206;25.320;2023-04-08T11:16:46;99983.38;;;18.19;40.95
73501;BME280;61721;42.206;25.320;2023-04-08T11:19:14;99984.38;;;17.35;42.72
73501;BME280;61721;42.206;25.320;2023-04-08T11:21:41;99984.47;;;16.88;42.00
73501;BME280;61721;42.206;25.320;2023-04-08T11:24:09;99979.00;;;16.65;43.33
73501;BME280;61721;42.206;25.320;2023-04-08T11:26:38;99974.53;;;16.80;43.80
73501;BME280;61721;42.206;25.320;2023-04-08T11:29:08;99976.63;;;17.01;41.84
73501;BME280;61721;42.206;25.320;2023-04-08T11:31:40;99984.00;;;16.05;43.21
73501;BME280;61721;42.206;25.320;2023-04-08T11:34:08;99974.84;;;17.92;40.76
73501;BME280;61721;42.206;25.320;2023-04-08T11:36:35;99966.47;;;17.57;40.62
73501;BME280;61721;42.206;25.320;2023-04-08T11:39:06;99963.50;;;19.00;39.03
73501;BME280;61721;42.206;25.320;2023-04-08T11:41:37;99974.63;;;17.26;40.25
73501;BME280;61721;42.206;25.320;2023-04-08T11:44:05;99963.22;;;16.77;41.92
73501;BME280;61721;42.206;25.320;2023-04-08T11:46:33;99954.78;;;17.10;42.32
73501;BME280;61721;42.206;25.320;2023-04-08T11:49:03;99950.38;;;17.86;41.48
73501;BME280;61721;42.206;25.320;2023-04-08T11:51:31;99940.88;;;18.05;40.01
73501;BME280;61721;42.206;25.320;2023-04-08T11:53:59;99942.13;;;17.03;43.10
73501;BME280;61721;42.206;25.320;2023-04-08T11:56:27;99942.84;;;17.73;41.68
73501;BME280;61721;42.206;25.320;2023-04-08T11:58:57;99947.09;;;17.45;40.67
73501;BME280;61721;42.206;25.320;2023-04-08T12:01:24;99941.50;;;16.93;40.15
73501;BME280;61721;42.206;25.320;2023-04-08T12:03:54;99940.31;;;17.49;40.54
73501;BME280;61721;42.206;25.320;2023-04-08T12:06:22;99935.50;;;16.27;42.12
73501;BME280;61721;42.206;25.320;2023-04-08T12:08:53;99926.94;;;17.47;40.94
73501;BME280;61721;42.206;25.320;2023-04-08T12:11:20;99927.28;;;17.75;40.85
73501;BME280;61721;42.206;25.320;2023-04-08T12:13:48;99933.28;;;17.40;41.39
73501;BME280;61721;42.206;25.320;2023-04-08T12:16:18;99924.72;;;17.05;41.00
73501;BME280;61721;42.206;25.320;2023-04-08T12:18:46;99930.31;;;16.57;42.63
73501;BME280;61721;42.206;25.320;2023-04-08T12:21:14;99922.34;;;17.93;39.88
73501;BME280;61721;42.206;25.320;2023-04-08T12:23:42;99912.16;;;17.58;39.69
73501;BME280;61721;42.206;25.320;2023-04-08T12:26:09;99916.41;;;17.52;39.91
73501;BME280;61721;42.206;25.320;2023-04-08T12:28:38;99906.09;;;16.33;42.15
73501;BME280;61721;42.206;25.320;2023-04-08T12:31:05;99896.53;;;18.79;39.04
73501;BME280;61721;42.206;25.320;2023-04-08T12:33:32;99894.09;;;18.40;39.08
73501;BME280;61721;42.206;25.320;2023-04-08T12:35:59;99890.81;;;18.01;39.51
73501;BME280;61721;42.206;25.320;2023-04-08T12:38:27;99896.69;;;18.04;38.79
73501;BME280;61721;42.206;25.320;2023-04-08T12:41:03;99888.72;;;17.28;40.61
73501;BME280;61721;42.206;25.320;2023-04-08T12:43:31;99888.19;;;17.09;40.64
73501;BME280;61721;42.206;25.320;2023-04-08T12:45:59;99889.81;;;17.19;40.71
73501;BME280;61721;42.206;25.320;2023-04-08T12:48:27;99889.59;;;16.97;40.42
73501;BME280;61721;42.206;25.320;2023-04-08T12:50:55;99884.44;;;17.33;40.65
73501;BME280;61721;42.206;25.320;2023-04-08T12:53:23;99882.91;;;17.16;40.03
73501;BME280;61721;42.206;25.320;2023-04-08T12:55:50;99872.06;;;16.93;39.05